createdAt,value
2023-02-01T00:02:02.581Z,25.60
2023-02-01T00:04:30.380Z,26.40
2023-02-01T00:06:57.923Z,26.30
2023-02-01T00:09:25.450Z,21.70
2023-02-01T00:11:52.719Z,23.50
2023-02-01T00:14:20.203Z,23.80
2023-02-01T00:16:47.300Z,24.00
2023-02-01T00:19:15.052Z,24.70
2023-02-01T00:21:42.633Z,24.20
2023-02-01T00:24:10.554Z,22.70
2023-02-01T00:26:45.061Z,22.80
2023-02-01T00:29:19.726Z,24.40
2023-02-01T00:31:46.748Z,22.40
2023-02-01T00:34:15.503Z,22.20
2023-02-01T00:36:43.077Z,25.00
2023-02-01T00:39:10.323Z,27.00
2023-02-01T00:41:37.679Z,23.50
2023-02-01T00:44:04.752Z,20.40
2023-02-01T00:46:32.035Z,24.60
2023-02-01T00:48:59.278Z,25.00
2023-02-01T00:51:27.900Z,20.50
2023-02-01T00:53:56.112Z,19.70
2023-02-01T00:56:23.634Z,24.10
2023-02-01T00:58:51.221Z,21.20
2023-02-01T01:01:20.687Z,20.50
2023-02-01T01:03:51.106Z,28.20
2023-02-01T01:06:37.136Z,22.80
2023-02-01T01:09:06.064Z,23.80
2023-02-01T01:11:35.597Z,23.10
2023-02-01T01:14:02.720Z,20.70
2023-02-01T01:16:31.463Z,21.50
2023-02-01T01:18:59.111Z,22.40
2023-02-01T01:21:26.581Z,22.50
2023-02-01T01:23:53.655Z,19.80
2023-02-01T01:26:23.038Z,20.90
2023-02-01T01:28:50.122Z,23.50
2023-02-01T01:31:18.303Z,19.40
2023-02-01T01:33:47.764Z,20.60
2023-02-01T01:36:16.059Z,23.50
2023-02-01T01:38:43.287Z,18.90
2023-02-01T01:41:16.665Z,25.10
2023-02-01T01:43:58.293Z,21.40
2023-02-01T01:46:29.106Z,21.10
2023-02-01T01:49:12.884Z,18.50
2023-02-01T01:51:45.242Z,20.20
2023-02-01T01:54:17.724Z,19.20
2023-02-01T01:56:47.224Z,20.20
2023-02-01T01:59:14.335Z,20.30
2023-02-01T02:01:41.733Z,22.80
2023-02-01T02:04:11.541Z,19.90
2023-02-01T02:06:41.747Z,20.60
2023-02-01T02:09:08.724Z,23.00
2023-02-01T02:11:36.372Z,20.20
2023-02-01T02:14:03.877Z,18.40
2023-02-01T02:16:53.142Z,21.00
2023-02-01T02:19:26.278Z,24.50
2023-02-01T02:22:30.122Z,20.90
2023-02-01T02:25:04.395Z,21.30
2023-02-01T02:27:45.790Z,18.70
2023-02-01T02:30:30.968Z,19.00
2023-02-01T02:33:32.833Z,17.40
2023-02-01T02:36:24.790Z,19.10
2023-02-01T02:39:01.559Z,19.30
2023-02-01T02:42:06.746Z,19.60
2023-02-01T02:44:57.513Z,19.70
2023-02-01T02:47:52.279Z,18.90
2023-02-01T02:50:51.529Z,17.70
2023-02-01T02:53:44.504Z,19.30
2023-02-01T02:56:30.166Z,18.80
2023-02-01T02:59:15.737Z,19.50
2023-02-01T03:02:04.106Z,21.30
2023-02-01T03:04:31.709Z,17.60
2023-02-01T03:07:28.717Z,16.70
2023-02-01T03:09:55.936Z,16.70
2023-02-01T03:12:42.148Z,22.10
2023-02-01T03:15:10.980Z,19.70
2023-02-01T03:17:40.345Z,18.10
2023-02-01T03:20:08.641Z,17.60
2023-02-01T03:22:36.307Z,21.10
2023-02-01T03:25:06.298Z,21.00
2023-02-01T03:27:40.200Z,21.90
2023-02-01T03:30:22.849Z,19.80
2023-02-01T03:33:01.770Z,24.40
2023-02-01T03:35:38.640Z,23.40
2023-02-01T03:38:30.401Z,17.20
2023-02-01T03:41:24.566Z,18.50
2023-02-01T03:43:55.583Z,21.40
2023-02-01T03:46:48.592Z,17.20
2023-02-01T03:49:58.311Z,18.10
2023-02-01T03:52:43.616Z,17.20
2023-02-01T03:55:13.045Z,21.50
2023-02-01T03:57:51.582Z,21.40
2023-02-01T04:00:23.737Z,18.40
2023-02-01T04:02:51.351Z,18.90
2023-02-01T04:05:18.443Z,20.40
2023-02-01T04:08:05.769Z,22.90
2023-02-01T04:10:38.777Z,21.60
2023-02-01T04:13:07.243Z,23.70
2023-02-01T04:15:35.387Z,21.30
2023-02-01T04:18:02.455Z,18.50
2023-02-01T04:20:29.662Z,18.60
2023-02-01T04:22:58.580Z,22.20
2023-02-01T04:25:26.078Z,23.10
2023-02-01T04:27:52.991Z,21.30
2023-02-01T04:30:20.623Z,19.00
2023-02-01T04:32:47.819Z,16.40
2023-02-01T04:37:45.769Z,18.90
2023-02-01T04:40:13.047Z,21.40
2023-02-01T04:42:40.251Z,17.40
2023-02-01T04:45:09.357Z,23.40
2023-02-01T04:47:36.733Z,20.70
2023-02-01T04:50:04.256Z,20.90
2023-02-01T04:52:31.507Z,22.40
2023-02-01T04:54:59.770Z,21.90
2023-02-01T04:57:26.895Z,23.60
2023-02-01T04:59:54.255Z,24.90
2023-02-01T05:02:21.348Z,22.90
2023-02-01T05:04:48.566Z,19.00
2023-02-01T05:07:16.220Z,23.20
2023-02-01T05:09:43.366Z,25.40
2023-02-01T05:12:29.392Z,22.80
2023-02-01T05:14:57.818Z,20.70
2023-02-01T05:17:24.936Z,21.80
2023-02-01T05:19:51.944Z,18.00
2023-02-01T05:22:19.104Z,19.00
2023-02-01T05:24:46.316Z,27.10
2023-02-01T05:27:13.715Z,21.00
2023-02-01T05:29:41.172Z,19.60
2023-02-01T05:32:21.669Z,20.20
2023-02-01T05:34:50.085Z,19.80
2023-02-01T05:37:17.924Z,21.80
2023-02-01T05:39:45.269Z,20.00
2023-02-01T05:42:12.581Z,19.30
2023-02-01T05:44:39.590Z,19.10
2023-02-01T05:47:07.471Z,24.80
2023-02-01T05:49:34.426Z,22.50
2023-02-01T05:52:06.831Z,20.60
2023-02-01T05:54:34.928Z,16.80
2023-02-01T05:57:03.414Z,21.60
2023-02-01T05:59:30.785Z,21.20
2023-02-01T06:01:57.896Z,22.30
2023-02-01T06:04:25.291Z,24.90
2023-02-01T06:06:52.588Z,27.20
2023-02-01T06:09:19.760Z,25.80
2023-02-01T06:11:47.569Z,21.00
2023-02-01T06:14:14.730Z,24.90
2023-02-01T06:16:41.899Z,24.40
2023-02-01T06:19:09.350Z,29.90
2023-02-01T06:21:36.799Z,20.90
2023-02-01T06:24:04.409Z,24.80
2023-02-01T06:26:31.856Z,14.10
2023-02-01T06:28:59.330Z,18.40
2023-02-01T06:31:26.535Z,18.50
2023-02-01T06:33:54.115Z,20.80
2023-02-01T06:36:24.533Z,19.30
2023-02-01T06:38:51.546Z,22.40
2023-02-01T06:41:21.013Z,21.60
2023-02-01T06:43:48.733Z,21.00
2023-02-01T06:46:15.971Z,18.70
2023-02-01T06:48:43.013Z,20.50
2023-02-01T06:51:36.220Z,21.20
2023-02-01T06:54:03.260Z,19.40
2023-02-01T06:56:31.860Z,21.40
2023-02-01T06:58:58.945Z,19.90
2023-02-01T07:01:27.253Z,25.90
2023-02-01T07:03:54.458Z,22.20
2023-02-01T07:06:21.593Z,21.00
2023-02-01T07:08:50.019Z,21.50
2023-02-01T07:11:18.280Z,19.10
2023-02-01T07:13:45.691Z,21.50
2023-02-01T07:16:14.414Z,16.70
2023-02-01T07:18:41.483Z,17.80
2023-02-01T07:21:08.692Z,19.80
2023-02-01T07:23:36.071Z,16.60
2023-02-01T07:26:04.668Z,18.80
2023-02-01T07:28:33.126Z,19.70
2023-02-01T07:31:18.532Z,18.00
2023-02-01T07:33:46.685Z,17.60
2023-02-01T07:36:15.788Z,17.20
2023-02-01T07:38:43.053Z,15.40
2023-02-01T07:41:10.238Z,20.10
2023-02-01T07:43:37.499Z,16.10
2023-02-01T07:46:05.101Z,17.10
2023-02-01T07:48:34.117Z,14.30
2023-02-01T07:51:05.199Z,15.80
2023-02-01T07:53:33.331Z,19.60
2023-02-01T07:56:01.072Z,19.70
2023-02-01T07:58:28.278Z,19.20
2023-02-01T08:01:14.031Z,21.50
2023-02-01T08:03:41.163Z,18.50
2023-02-01T08:06:08.183Z,22.40
2023-02-01T08:08:35.609Z,21.80
2023-02-01T08:11:04.460Z,16.60
2023-02-01T08:13:31.617Z,17.00
2023-02-01T08:16:03.220Z,17.80
2023-02-01T08:18:30.858Z,19.80
2023-02-01T08:20:57.970Z,20.80
2023-02-01T08:23:25.128Z,22.90
2023-02-01T08:25:52.207Z,20.10
2023-02-01T08:28:19.545Z,18.50
2023-02-01T08:30:46.842Z,21.20
2023-02-01T08:33:14.180Z,16.40
2023-02-01T08:35:44.135Z,17.00
2023-02-01T08:38:11.439Z,19.40
2023-02-01T08:40:38.989Z,24.30
2023-02-01T08:43:07.433Z,19.40
2023-02-01T08:45:34.392Z,15.60
2023-02-01T08:48:03.899Z,19.20
2023-02-01T08:50:31.400Z,19.20
2023-02-01T08:52:59.861Z,17.20
2023-02-01T08:55:27.247Z,22.90
2023-02-01T08:57:54.630Z,11.70
2023-02-01T09:00:22.221Z,22.50
2023-02-01T09:02:49.357Z,18.30
2023-02-01T09:05:18.652Z,18.40
2023-02-01T09:07:45.816Z,19.30
2023-02-01T09:10:14.545Z,22.00
2023-02-01T09:12:42.984Z,21.50
2023-02-01T09:15:10.843Z,16.00
2023-02-01T09:17:39.155Z,17.30
2023-02-01T09:20:07.506Z,22.30
2023-02-01T09:22:34.600Z,18.30
2023-02-01T09:25:01.636Z,16.80
2023-02-01T09:27:29.243Z,20.10
2023-02-01T09:29:56.256Z,20.30
2023-02-01T09:32:23.673Z,14.10
2023-02-01T09:34:51.781Z,14.90
2023-02-01T09:37:19.790Z,17.70
2023-02-01T09:39:46.761Z,15.90
2023-02-01T09:42:32.365Z,15.40
2023-02-01T09:45:02.807Z,18.30
2023-02-01T09:47:30.417Z,15.40
2023-02-01T09:50:23.340Z,17.80
2023-02-01T09:52:56.594Z,18.60
2023-02-01T09:55:37.397Z,19.60
2023-02-01T09:58:25.473Z,19.80
2023-02-01T10:00:56.476Z,23.20
2023-02-01T10:03:24.961Z,19.40
2023-02-01T10:06:10.277Z,20.10
2023-02-01T10:08:52.467Z,19.70
2023-02-01T10:11:31.704Z,17.90
2023-02-01T10:14:13.266Z,20.10
2023-02-01T10:16:43.902Z,19.80
2023-02-01T10:19:22.959Z,21.50
2023-02-01T10:21:56.016Z,20.70
2023-02-01T10:24:25.961Z,18.90
2023-02-01T10:27:07.040Z,17.70
2023-02-01T10:29:37.362Z,19.60
2023-02-01T10:32:12.659Z,22.40
2023-02-01T10:34:40.018Z,16.70
2023-02-01T10:37:20.094Z,18.80
2023-02-01T10:39:49.271Z,16.80
2023-02-01T10:42:19.650Z,20.30
2023-02-01T10:44:48.499Z,17.60
2023-02-01T10:47:16.241Z,17.80
2023-02-01T10:49:49.164Z,16.70
2023-02-01T10:52:20.883Z,17.90
2023-02-01T10:54:47.815Z,20.30
2023-02-01T10:57:26.335Z,19.00
2023-02-01T10:59:53.528Z,21.70
2023-02-01T11:02:32.028Z,18.90
2023-02-01T11:05:12.670Z,19.70
2023-02-01T11:07:40.223Z,18.70
2023-02-01T11:10:10.754Z,19.10
2023-02-01T11:12:38.142Z,16.80
2023-02-01T11:15:12.378Z,19.10
2023-02-01T11:17:47.085Z,14.10
2023-02-01T11:20:19.264Z,16.90
2023-02-01T11:22:56.521Z,17.50
2023-02-01T11:25:24.166Z,17.90
2023-02-01T11:27:55.401Z,23.20
2023-02-01T11:30:26.284Z,21.70
2023-02-01T11:32:53.166Z,16.50
2023-02-01T11:35:21.215Z,18.10
2023-02-01T11:37:54.214Z,25.00
2023-02-01T11:40:28.759Z,17.50
2023-02-01T11:43:12.593Z,23.80
2023-02-01T11:45:39.956Z,26.60
2023-02-01T11:48:18.201Z,20.70
2023-02-01T11:51:12.974Z,27.60
2023-02-01T11:54:08.344Z,24.30
2023-02-01T11:57:07.213Z,20.00
2023-02-01T11:59:43.086Z,16.20
2023-02-01T12:02:22.080Z,14.70
2023-02-01T12:04:58.685Z,19.20
2023-02-01T12:07:33.522Z,15.70
2023-02-01T12:10:19.747Z,13.40
2023-02-01T12:12:57.226Z,17.00
2023-02-01T12:15:29.423Z,14.80
2023-02-01T12:18:25.480Z,15.00
2023-02-01T12:21:06.611Z,15.90
2023-02-01T12:23:51.589Z,18.20
2023-02-01T12:26:33.789Z,16.20
2023-02-01T12:29:23.320Z,12.90
2023-02-01T12:32:02.256Z,20.10
2023-02-01T12:34:48.244Z,13.40
2023-02-01T12:37:27.666Z,15.40
2023-02-01T12:40:00.583Z,17.20
2023-02-01T12:42:32.022Z,14.10
2023-02-01T12:45:24.539Z,15.90
2023-02-01T12:47:54.954Z,14.50
2023-02-01T12:50:28.960Z,15.60
2023-02-01T12:53:04.968Z,12.80
2023-02-01T12:55:37.764Z,13.40
2023-02-01T12:58:24.011Z,13.00
2023-02-01T13:00:53.263Z,16.40
2023-02-01T13:03:40.584Z,16.80
2023-02-01T13:06:14.551Z,13.40
2023-02-01T13:08:58.765Z,15.30
2023-02-01T13:11:31.488Z,11.20
2023-02-01T13:14:03.900Z,14.40
2023-02-01T13:16:33.620Z,12.20
2023-02-01T13:19:06.060Z,10.80
2023-02-01T13:21:35.952Z,15.40
2023-02-01T13:24:03.184Z,11.90
2023-02-01T13:26:30.298Z,15.60
2023-02-01T13:29:03.765Z,16.30
2023-02-01T13:31:30.907Z,19.50
2023-02-01T13:34:19.500Z,18.60
2023-02-01T13:37:08.540Z,15.80
2023-02-01T13:40:01.135Z,11.90
2023-02-01T13:42:30.183Z,19.10
2023-02-01T13:45:14.788Z,13.80
2023-02-01T13:47:43.857Z,14.10
2023-02-01T13:50:29.293Z,14.70
2023-02-01T13:52:59.110Z,13.40
2023-02-01T13:58:15.680Z,15.50
2023-02-01T14:00:46.001Z,14.40
2023-02-01T14:03:36.265Z,17.40
2023-02-01T14:06:04.088Z,16.00
2023-02-01T14:08:39.720Z,14.30
2023-02-01T14:11:06.774Z,12.20
2023-02-01T14:13:40.772Z,15.40
2023-02-01T14:16:18.115Z,15.40
2023-02-01T14:18:46.908Z,12.70
2023-02-01T14:21:23.009Z,12.80
2023-02-01T14:23:53.727Z,14.70
2023-02-01T14:26:39.416Z,16.00
2023-02-01T14:29:20.600Z,16.00
2023-02-01T14:31:53.738Z,14.30
2023-02-01T14:34:47.609Z,14.40
2023-02-01T14:37:17.839Z,15.50
2023-02-01T14:39:44.991Z,10.60
2023-02-01T14:42:15.330Z,11.30
2023-02-01T14:44:59.446Z,9.30
2023-02-01T14:47:28.871Z,9.80
2023-02-01T14:50:28.228Z,12.30
2023-02-01T14:53:11.115Z,9.40
2023-02-01T14:55:42.428Z,10.90
2023-02-01T14:58:33.278Z,12.10
2023-02-01T15:01:05.780Z,11.00
2023-02-01T15:03:39.370Z,11.90
2023-02-01T15:06:39.580Z,11.30
2023-02-01T15:09:13.155Z,11.70
2023-02-01T15:12:04.502Z,14.20
2023-02-01T15:14:34.059Z,12.10
2023-02-01T15:17:01.209Z,13.90
2023-02-01T15:19:30.926Z,12.10
2023-02-01T15:21:58.492Z,12.20
2023-02-01T15:24:26.230Z,12.70
2023-02-01T15:26:54.260Z,12.00
2023-02-01T15:29:28.013Z,10.50
2023-02-01T15:31:56.120Z,9.30
2023-02-01T15:34:24.716Z,12.70
2023-02-01T15:37:02.869Z,11.50
2023-02-01T15:39:31.373Z,12.80
2023-02-01T15:42:02.468Z,13.20
2023-02-01T15:46:59.508Z,11.70
2023-02-01T15:49:33.223Z,16.20
2023-02-01T15:52:01.323Z,12.80
2023-02-01T15:54:42.991Z,12.90
2023-02-01T15:57:10.693Z,12.50
2023-02-01T15:59:44.427Z,15.90
2023-02-01T16:02:39.426Z,12.90
2023-02-01T16:05:23.212Z,12.80
2023-02-01T16:07:57.415Z,14.80
2023-02-01T16:10:26.964Z,12.20
2023-02-01T16:12:59.057Z,14.90
2023-02-01T16:15:30.236Z,12.40
2023-02-01T16:17:57.384Z,14.40
2023-02-01T16:20:24.458Z,15.80
2023-02-01T16:22:51.753Z,13.80
2023-02-01T16:25:18.774Z,17.80
2023-02-01T16:27:46.119Z,16.30
2023-02-01T16:30:13.488Z,18.00
2023-02-01T16:32:40.698Z,16.90
2023-02-01T16:35:19.482Z,18.50
2023-02-01T16:37:46.879Z,17.00
2023-02-01T16:40:15.207Z,19.50
2023-02-01T16:42:42.503Z,21.40
2023-02-01T16:45:10.077Z,20.70
2023-02-01T16:47:37.893Z,21.90
2023-02-01T16:50:22.768Z,26.60
2023-02-01T16:52:51.434Z,26.70
2023-02-01T16:55:19.930Z,19.60
2023-02-01T16:57:48.963Z,22.90
2023-02-01T17:00:24.396Z,23.60
2023-02-01T17:02:53.644Z,26.60
2023-02-01T17:05:21.365Z,27.90
2023-02-01T17:07:48.865Z,24.40
2023-02-01T17:10:32.622Z,25.30
2023-02-01T17:13:00.735Z,24.30
2023-02-01T17:15:29.603Z,22.20
2023-02-01T17:18:02.195Z,21.40
2023-02-01T17:20:32.428Z,25.40
2023-02-01T17:23:00.175Z,25.80
2023-02-01T17:25:28.352Z,22.60
2023-02-01T17:27:58.313Z,25.80
2023-02-01T17:30:25.731Z,25.60
2023-02-01T17:32:53.112Z,26.10
2023-02-01T17:35:23.241Z,25.80
2023-02-01T17:37:50.701Z,21.90
2023-02-01T17:40:17.989Z,24.50
2023-02-01T17:42:45.290Z,24.40
2023-02-01T17:45:39.930Z,24.40
2023-02-01T17:48:07.424Z,25.80
2023-02-01T17:50:36.625Z,24.40
2023-02-01T17:53:05.468Z,28.30
2023-02-01T17:55:34.474Z,27.80
2023-02-01T17:58:01.614Z,24.10
2023-02-01T18:00:30.072Z,24.40
2023-02-01T18:02:57.647Z,24.90
2023-02-01T18:05:53.061Z,25.50
2023-02-01T18:08:23.779Z,25.50
2023-02-01T18:11:01.195Z,27.60
2023-02-01T18:13:28.876Z,25.10
2023-02-01T18:15:58.538Z,23.70
2023-02-01T18:18:25.798Z,23.00
2023-02-01T18:20:52.826Z,21.90
2023-02-01T18:23:22.014Z,26.30
2023-02-01T18:25:50.956Z,25.20
2023-02-01T18:28:18.704Z,29.00
2023-02-01T18:30:47.822Z,27.80
2023-02-01T18:33:16.673Z,27.50
2023-02-01T18:35:44.425Z,25.80
2023-02-01T18:38:11.574Z,26.80
2023-02-01T18:41:00.572Z,27.30
2023-02-01T18:43:27.657Z,27.80
2023-02-01T18:45:55.403Z,29.30
2023-02-01T18:48:22.612Z,30.20
2023-02-01T18:50:51.661Z,26.20
2023-02-01T18:53:19.766Z,26.80
2023-02-01T18:55:50.303Z,26.10
2023-02-01T18:58:17.834Z,25.40
2023-02-01T19:00:46.566Z,29.20
2023-02-01T19:03:14.314Z,26.50
2023-02-01T19:05:41.302Z,27.20
2023-02-01T19:08:11.341Z,23.80
2023-02-01T19:10:41.363Z,27.10
2023-02-01T19:13:12.714Z,27.10
2023-02-01T19:15:41.843Z,26.60
2023-02-01T19:18:09.242Z,24.20
2023-02-01T19:20:57.654Z,26.20
2023-02-01T19:23:26.312Z,20.40
2023-02-01T19:25:54.949Z,23.60
2023-02-01T19:28:30.571Z,24.90
2023-02-01T19:31:04.472Z,21.90
2023-02-01T19:33:32.087Z,22.70
2023-02-01T19:36:02.914Z,26.50
2023-02-01T19:38:31.283Z,22.50
2023-02-01T19:40:59.899Z,23.00
2023-02-01T19:43:27.712Z,20.60
2023-02-01T19:45:55.413Z,25.30
2023-02-01T19:48:23.170Z,25.10
2023-02-01T19:50:51.172Z,26.00
2023-02-01T19:53:19.100Z,23.90
2023-02-01T19:55:47.701Z,25.40
2023-02-01T19:58:36.792Z,23.80
2023-02-01T20:01:05.604Z,22.70
2023-02-01T20:03:33.184Z,22.90
2023-02-01T20:06:00.896Z,21.80
2023-02-01T20:08:28.268Z,22.40
2023-02-01T20:10:56.935Z,26.40
2023-02-01T20:13:24.690Z,22.50
2023-02-01T20:15:58.837Z,23.30
2023-02-01T20:18:26.865Z,24.80
2023-02-01T20:20:56.277Z,22.50
2023-02-01T20:23:23.774Z,19.60
2023-02-01T20:25:53.375Z,24.50
2023-02-01T20:28:21.096Z,20.90
2023-02-01T20:30:50.739Z,23.40
2023-02-01T20:33:20.290Z,22.60
2023-02-01T20:35:47.719Z,40.40
2023-02-01T20:38:17.648Z,24.20
2023-02-01T20:40:47.457Z,24.60
2023-02-01T20:43:14.823Z,23.20
2023-02-01T20:45:42.445Z,21.70
2023-02-01T20:48:10.697Z,18.30
2023-02-01T20:50:38.585Z,22.20
2023-02-01T20:53:06.095Z,21.50
2023-02-01T20:55:38.176Z,27.40
2023-02-01T20:58:07.130Z,23.20
2023-02-01T21:00:34.516Z,24.80
2023-02-01T21:03:02.595Z,26.60
2023-02-01T21:05:40.173Z,23.10
2023-02-01T21:08:12.284Z,23.00
2023-02-01T21:10:39.793Z,23.50
2023-02-01T21:13:07.914Z,20.30
2023-02-01T21:15:36.301Z,31.30
2023-02-01T21:18:04.576Z,22.50
2023-02-01T21:20:33.995Z,24.70
2023-02-01T21:23:01.410Z,22.30
2023-02-01T21:25:28.641Z,26.60
2023-02-01T21:27:56.177Z,22.90
2023-02-01T21:30:23.434Z,19.10
2023-02-01T21:32:51.950Z,28.00
2023-02-01T21:35:19.279Z,26.80
2023-02-01T21:37:47.088Z,25.90
2023-02-01T21:40:17.884Z,25.70
2023-02-01T21:42:58.043Z,27.60
2023-02-01T21:45:31.063Z,29.10
2023-02-01T21:48:02.148Z,26.60
2023-02-01T21:50:34.679Z,27.50
2023-02-01T21:53:03.275Z,25.40
2023-02-01T21:55:31.387Z,28.00
2023-02-01T21:57:58.374Z,27.60
2023-02-01T22:00:25.761Z,25.20
2023-02-01T22:02:53.495Z,26.30
2023-02-01T22:05:20.981Z,27.30
2023-02-01T22:07:49.208Z,23.10
2023-02-01T22:10:16.341Z,22.10
2023-02-01T22:13:03.155Z,20.80
2023-02-01T22:15:32.435Z,22.20
2023-02-01T22:17:59.557Z,18.30
2023-02-01T22:20:28.260Z,25.40
2023-02-01T22:22:56.223Z,19.50
2023-02-01T22:25:28.098Z,19.40
2023-02-01T22:28:30.900Z,22.50
2023-02-01T22:30:42.806Z,22.50
2023-02-01T22:33:15.430Z,20.60
2023-02-01T22:35:42.498Z,20.10
2023-02-01T22:38:10.436Z,21.30
2023-02-01T22:40:57.506Z,18.30
2023-02-01T22:43:25.479Z,18.60
2023-02-01T22:45:52.834Z,25.10
2023-02-01T22:48:20.653Z,18.40
2023-02-01T22:50:47.718Z,19.20
2023-02-01T22:53:15.304Z,19.70
2023-02-01T22:55:44.929Z,22.60
2023-02-01T22:58:12.479Z,19.90
2023-02-01T23:00:39.685Z,20.50
2023-02-01T23:03:08.392Z,22.30
2023-02-01T23:05:35.509Z,22.60
2023-02-01T23:08:05.182Z,23.30
2023-02-01T23:10:33.233Z,20.60
2023-02-01T23:13:00.489Z,19.50
2023-02-01T23:15:27.473Z,23.50
2023-02-01T23:17:54.631Z,24.00
2023-02-01T23:20:23.476Z,24.00
2023-02-01T23:22:50.643Z,18.20
2023-02-01T23:25:17.817Z,19.50
2023-02-01T23:27:48.267Z,17.00
2023-02-01T23:30:16.759Z,19.70
2023-02-01T23:32:44.315Z,18.10
2023-02-01T23:35:12.441Z,19.10
2023-02-01T23:37:40.369Z,18.60
2023-02-01T23:40:07.899Z,21.10
2023-02-01T23:42:35.342Z,22.70
2023-02-01T23:45:03.035Z,20.90
2023-02-01T23:47:30.096Z,18.10
2023-02-01T23:49:57.197Z,22.10
2023-02-01T23:52:25.976Z,21.10
2023-02-01T23:54:53.166Z,19.70
2023-02-01T23:57:21.568Z,20.40
2023-02-01T23:59:48.933Z,24.20
